createdAt,value
2022-11-24T00:01:18.120Z,68.96
2022-11-24T00:03:46.697Z,68.23
2022-11-24T00:06:15.625Z,67.88
2022-11-24T00:08:44.500Z,68.22
2022-11-24T00:11:14.916Z,67.67
2022-11-24T00:13:41.926Z,67.42
2022-11-24T00:16:16.861Z,67.46
2022-11-24T00:18:46.644Z,67.44
2022-11-24T00:21:15.531Z,67.65
2022-11-24T00:23:43.415Z,68.02
2022-11-24T00:26:28.065Z,68.21
2022-11-24T00:28:56.962Z,68.13
2022-11-24T00:31:27.700Z,68.06
2022-11-24T00:33:56.914Z,67.92
2022-11-24T00:36:25.883Z,68.27
2022-11-24T00:39:04.737Z,68.47
2022-11-24T00:41:31.740Z,68.15
2022-11-24T00:43:59.761Z,68.19
2022-11-24T00:46:27.969Z,68.58
2022-11-24T00:48:55.377Z,68.14
2022-11-24T00:51:26.176Z,68.59
2022-11-24T00:53:53.552Z,68.64
2022-11-24T00:56:20.456Z,68.27
2022-11-24T00:58:47.429Z,68.31
2022-11-24T01:01:18.378Z,68.21
2022-11-24T01:03:46.917Z,68.34
2022-11-24T01:06:19.896Z,68.37
2022-11-24T01:08:47.350Z,68.08
2022-11-24T01:11:15.815Z,67.84
2022-11-24T01:13:44.670Z,67.60
2022-11-24T01:16:38.881Z,68.04
2022-11-24T01:19:05.746Z,68.14
2022-11-24T01:21:32.617Z,67.80
2022-11-24T01:23:59.513Z,68.22
2022-11-24T01:26:26.645Z,68.38
2022-11-24T01:28:57.545Z,68.52
2022-11-24T01:31:26.720Z,68.14
2022-11-24T01:33:54.526Z,67.49
2022-11-24T01:36:22.450Z,67.78
2022-11-24T01:38:49.824Z,67.85
2022-11-24T01:41:20.528Z,67.55
2022-11-24T01:43:48.437Z,67.81
2022-11-24T01:46:28.924Z,67.15
2022-11-24T01:49:13.888Z,67.94
2022-11-24T01:51:48.218Z,68.81
2022-11-24T01:54:21.804Z,69.93
2022-11-24T01:56:53.860Z,69.44
2022-11-24T01:59:21.944Z,70.11
2022-11-24T02:01:51.577Z,70.18
2022-11-24T02:04:24.244Z,71.16
2022-11-24T02:06:52.950Z,70.66
2022-11-24T02:09:31.448Z,70.07
2022-11-24T02:12:01.161Z,70.80
2022-11-24T02:14:28.229Z,70.97
2022-11-24T02:16:55.097Z,70.52
2022-11-24T02:19:34.907Z,70.28
2022-11-24T02:22:03.796Z,68.90
2022-11-24T02:24:41.492Z,69.00
2022-11-24T02:27:10.612Z,68.91
2022-11-24T02:29:38.237Z,69.18
2022-11-24T02:32:07.640Z,69.65
2022-11-24T02:34:34.970Z,69.46
2022-11-24T02:37:02.077Z,70.12
2022-11-24T02:39:28.947Z,69.90
2022-11-24T02:42:05.986Z,69.10
2022-11-24T02:44:39.588Z,69.23
2022-11-24T02:47:09.761Z,68.98
2022-11-24T02:49:36.809Z,67.46
2022-11-24T02:52:04.521Z,67.82
2022-11-24T02:54:31.927Z,68.20
2022-11-24T02:56:59.463Z,67.86
2022-11-24T02:59:26.558Z,67.88
2022-11-24T03:01:53.644Z,67.93
2022-11-24T03:04:20.731Z,67.68
2022-11-24T03:06:47.805Z,67.60
2022-11-24T03:09:14.657Z,66.46
2022-11-24T03:11:41.567Z,66.57
2022-11-24T03:14:08.812Z,67.54
2022-11-24T03:16:36.107Z,66.79
2022-11-24T03:19:03.231Z,66.45
2022-11-24T03:21:30.226Z,67.18
2022-11-24T03:23:57.492Z,67.62
2022-11-24T03:26:26.335Z,67.66
2022-11-24T03:28:55.576Z,66.94
2022-11-24T03:31:23.762Z,67.67
2022-11-24T03:33:50.789Z,67.43
2022-11-24T03:36:17.863Z,68.20
2022-11-24T03:38:44.914Z,68.83
2022-11-24T03:41:12.014Z,69.13
2022-11-24T03:43:43.473Z,68.88
2022-11-24T03:46:12.185Z,68.14
2022-11-24T03:48:39.353Z,67.31
2022-11-24T03:51:06.523Z,67.06
2022-11-24T03:53:33.785Z,67.17
2022-11-24T03:56:02.189Z,67.22
2022-11-24T03:58:29.745Z,65.40
2022-11-24T04:00:56.865Z,65.37
2022-11-24T04:03:24.504Z,66.12
2022-11-24T04:05:51.735Z,66.85
2022-11-24T04:08:19.535Z,67.22
2022-11-24T04:10:51.362Z,66.82
2022-11-24T04:13:21.512Z,66.92
2022-11-24T04:15:48.531Z,67.40
2022-11-24T04:18:15.707Z,67.07
2022-11-24T04:20:43.068Z,66.62
2022-11-24T04:23:11.422Z,67.40
2022-11-24T04:25:38.930Z,67.49
2022-11-24T04:28:06.276Z,67.48
2022-11-24T04:30:33.202Z,67.69
2022-11-24T04:33:00.127Z,67.57
2022-11-24T04:35:27.356Z,67.75
2022-11-24T04:37:54.700Z,67.47
2022-11-24T04:40:21.632Z,67.43
2022-11-24T04:42:55.503Z,67.49
2022-11-24T04:45:23.683Z,67.58
2022-11-24T04:47:50.519Z,67.59
2022-11-24T04:50:17.718Z,67.34
2022-11-24T04:52:44.640Z,67.25
2022-11-24T04:55:11.567Z,67.17
2022-11-24T04:57:38.621Z,67.01
2022-11-24T05:00:06.515Z,66.97
2022-11-24T05:02:33.426Z,67.17
2022-11-24T05:05:00.303Z,66.63
2022-11-24T05:07:27.581Z,66.58
2022-11-24T05:10:13.150Z,66.23
2022-11-24T05:12:40.122Z,64.67
2022-11-24T05:15:07.732Z,65.32
2022-11-24T05:17:39.195Z,66.14
2022-11-24T05:20:07.540Z,66.72
2022-11-24T05:22:34.639Z,66.32
2022-11-24T05:25:01.969Z,66.78
2022-11-24T05:27:28.932Z,67.06
2022-11-24T05:29:55.913Z,66.96
2022-11-24T05:32:23.108Z,65.96
2022-11-24T05:34:50.024Z,65.86
2022-11-24T05:37:17.921Z,66.39
2022-11-24T05:39:44.784Z,66.96
2022-11-24T05:42:30.383Z,67.32
2022-11-24T05:44:57.770Z,67.37
2022-11-24T05:47:24.807Z,67.56
2022-11-24T05:49:52.133Z,67.97
2022-11-24T05:52:19.098Z,66.78
2022-11-24T05:54:45.948Z,67.02
2022-11-24T05:57:13.353Z,67.86
2022-11-24T05:59:40.348Z,67.86
2022-11-24T06:02:07.434Z,68.25
2022-11-24T06:04:34.703Z,68.43
2022-11-24T06:07:02.043Z,68.37
2022-11-24T06:09:28.957Z,68.33
2022-11-24T06:11:56.167Z,68.41
2022-11-24T06:14:23.245Z,68.05
2022-11-24T06:16:50.442Z,68.26
2022-11-24T06:19:17.332Z,68.40
2022-11-24T06:21:44.246Z,68.58
2022-11-24T06:24:11.400Z,68.67
2022-11-24T06:26:38.303Z,68.60
2022-11-24T06:29:05.391Z,68.88
2022-11-24T06:31:32.868Z,69.09
2022-11-24T06:34:00.948Z,69.49
2022-11-24T06:36:28.073Z,69.91
2022-11-24T06:38:54.988Z,70.51
2022-11-24T06:41:21.931Z,71.17
2022-11-24T06:43:48.775Z,71.44
2022-11-24T06:46:15.767Z,71.47
2022-11-24T06:48:42.700Z,71.70
2022-11-24T06:51:13.120Z,72.03
2022-11-24T06:53:41.084Z,72.40
2022-11-24T06:56:16.648Z,72.92
2022-11-24T06:58:45.880Z,72.98
2022-11-24T07:01:20.658Z,73.01
2022-11-24T07:03:48.515Z,73.18
2022-11-24T07:06:16.932Z,73.21
2022-11-24T07:08:44.138Z,73.88
2022-11-24T07:11:15.789Z,73.72
2022-11-24T07:13:43.447Z,73.46
2022-11-24T07:16:19.415Z,72.57
2022-11-24T07:18:47.845Z,73.29
2022-11-24T07:21:15.530Z,73.70
2022-11-24T07:23:42.842Z,74.46
2022-11-24T07:26:12.321Z,73.86
2022-11-24T07:28:39.267Z,73.15
2022-11-24T07:31:07.717Z,73.39
2022-11-24T07:33:35.252Z,73.25
2022-11-24T07:36:05.394Z,73.73
2022-11-24T07:38:33.539Z,73.55
2022-11-24T07:41:07.759Z,75.77
2022-11-24T07:43:36.743Z,76.05
2022-11-24T07:46:05.901Z,77.15
2022-11-24T07:48:34.644Z,78.09
2022-11-24T07:51:02.971Z,78.27
2022-11-24T07:53:30.650Z,74.21
2022-11-24T07:56:03.423Z,74.58
2022-11-24T07:58:33.140Z,74.81
2022-11-24T08:01:08.689Z,75.29
2022-11-24T08:03:35.901Z,70.53
2022-11-24T08:08:49.895Z,70.43
2022-11-24T08:11:18.305Z,70.80
2022-11-24T08:13:45.467Z,68.83
2022-11-24T08:16:15.204Z,68.26
2022-11-24T08:18:43.284Z,66.63
2022-11-24T08:21:14.530Z,67.74
2022-11-24T08:23:42.138Z,69.35
2022-11-24T08:26:13.952Z,69.46
2022-11-24T08:28:41.300Z,69.37
2022-11-24T08:31:15.954Z,69.29
2022-11-24T08:33:43.394Z,69.20
2022-11-24T08:36:13.520Z,68.96
2022-11-24T08:38:41.209Z,68.72
2022-11-24T08:41:13.635Z,69.01
2022-11-24T08:43:41.004Z,69.00
2022-11-24T08:46:10.736Z,69.00
2022-11-24T08:48:37.862Z,69.29
2022-11-24T08:51:13.768Z,69.36
2022-11-24T08:53:41.794Z,69.19
2022-11-24T08:56:10.073Z,69.00
2022-11-24T08:58:37.824Z,68.83
2022-11-24T09:01:14.138Z,68.57
2022-11-24T09:03:49.752Z,68.60
2022-11-24T09:06:25.412Z,68.30
2022-11-24T09:08:54.327Z,69.54
2022-11-24T09:11:21.863Z,70.16
2022-11-24T09:13:48.866Z,70.43
2022-11-24T09:16:19.250Z,70.62
2022-11-24T09:18:47.369Z,70.35
2022-11-24T09:21:21.940Z,69.08
2022-11-24T09:23:50.947Z,67.50
2022-11-24T09:26:19.470Z,67.35
2022-11-24T09:28:47.232Z,62.17
2022-11-24T09:31:17.730Z,59.23
2022-11-24T09:33:45.402Z,63.46
2022-11-24T09:36:12.687Z,66.15
2022-11-24T09:38:40.163Z,62.17
2022-11-24T09:41:24.960Z,65.53
2022-11-24T09:44:22.058Z,63.37
2022-11-24T09:46:58.868Z,60.73
2022-11-24T09:49:59.137Z,63.27
2022-11-24T09:52:41.501Z,65.25
2022-11-24T09:55:42.320Z,66.74
2022-11-24T09:58:30.983Z,67.43
2022-11-24T10:01:02.017Z,66.30
2022-11-24T10:03:37.863Z,65.89
2022-11-24T10:06:34.881Z,66.14
2022-11-24T10:09:07.455Z,65.14
2022-11-24T10:12:03.801Z,64.71
2022-11-24T10:14:39.457Z,63.25
2022-11-24T10:17:26.627Z,59.35
2022-11-24T10:20:21.082Z,58.87
2022-11-24T10:22:54.002Z,56.13
2022-11-24T10:25:52.116Z,57.73
2022-11-24T10:28:19.222Z,56.48
2022-11-24T10:30:46.202Z,56.97
2022-11-24T10:33:22.185Z,56.86
2022-11-24T10:36:09.697Z,58.40
2022-11-24T10:38:44.243Z,58.64
2022-11-24T10:41:18.993Z,59.91
2022-11-24T10:43:46.008Z,60.58
2022-11-24T10:46:26.620Z,63.01
2022-11-24T10:49:03.927Z,63.06
2022-11-24T10:51:30.812Z,63.07
2022-11-24T10:54:05.453Z,63.96
2022-11-24T10:56:40.473Z,61.37
2022-11-24T10:59:29.603Z,62.58
2022-11-24T11:01:56.789Z,60.73
2022-11-24T11:04:28.462Z,61.69
2022-11-24T11:07:22.421Z,62.23
2022-11-24T11:09:49.646Z,62.00
2022-11-24T11:15:31.488Z,61.83
2022-11-24T11:18:00.361Z,62.38
2022-11-24T11:20:34.357Z,62.10
2022-11-24T11:23:14.564Z,62.36
2022-11-24T11:25:41.547Z,61.27
2022-11-24T11:28:18.654Z,60.44
2022-11-24T11:31:16.643Z,60.76
2022-11-24T11:34:09.399Z,62.50
2022-11-24T11:36:45.202Z,62.65
2022-11-24T11:39:36.221Z,61.25
2022-11-24T11:43:03.649Z,59.76
2022-11-24T11:45:25.813Z,61.63
2022-11-24T11:47:52.711Z,64.01
2022-11-24T11:51:06.757Z,65.45
2022-11-24T11:53:47.280Z,65.45
2022-11-24T11:56:30.292Z,65.49
2022-11-24T11:59:14.936Z,64.79
2022-11-24T12:01:58.751Z,63.91
2022-11-24T12:04:53.068Z,63.93
2022-11-24T12:08:20.465Z,64.34
2022-11-24T12:11:14.154Z,65.00
2022-11-24T12:13:50.144Z,65.04
2022-11-24T12:16:20.097Z,65.35
2022-11-24T12:18:57.965Z,64.67
2022-11-24T12:21:34.128Z,64.12
2022-11-24T12:24:30.734Z,64.09
2022-11-24T12:27:23.067Z,63.98
2022-11-24T12:30:02.289Z,64.00
2022-11-24T12:32:47.342Z,63.30
2022-11-24T12:35:33.420Z,63.37
2022-11-24T12:38:15.844Z,61.83
2022-11-24T12:41:06.439Z,60.07
2022-11-24T12:43:50.398Z,60.60
2022-11-24T12:46:48.287Z,61.21
2022-11-24T12:49:24.197Z,61.39
2022-11-24T12:52:05.807Z,61.65
2022-11-24T12:54:40.427Z,61.47
2022-11-24T12:57:25.331Z,63.06
2022-11-24T13:00:13.760Z,63.42
2022-11-24T13:02:49.803Z,63.84
2022-11-24T13:05:20.423Z,64.12
2022-11-24T13:07:54.719Z,64.35
2022-11-24T13:10:40.409Z,64.07
2022-11-24T13:13:13.759Z,63.46
2022-11-24T13:16:07.061Z,63.45
2022-11-24T13:18:47.203Z,63.43
2022-11-24T13:21:32.394Z,60.56
2022-11-24T13:24:01.344Z,61.24
2022-11-24T13:33:16.799Z,62.14
2022-11-24T13:36:02.921Z,63.09
2022-11-24T13:38:42.257Z,63.82
2022-11-24T13:41:28.036Z,63.87
2022-11-24T13:44:13.892Z,64.31
2022-11-24T13:47:06.515Z,63.79
2022-11-24T13:49:50.382Z,62.17
2022-11-24T13:52:36.379Z,62.72
2022-11-24T13:55:21.095Z,62.80
2022-11-24T13:57:58.686Z,62.56
2022-11-24T14:00:58.556Z,62.12
2022-11-24T14:03:44.529Z,62.37
2022-11-24T14:06:38.127Z,63.52
2022-11-24T14:09:30.799Z,64.20
2022-11-24T14:12:25.035Z,64.77
2022-11-24T14:14:57.155Z,65.48
2022-11-24T14:17:28.705Z,65.86
2022-11-24T14:19:58.033Z,67.03
2022-11-24T14:22:31.621Z,68.39
2022-11-24T14:25:01.043Z,68.67
2022-11-24T14:27:31.793Z,69.33
2022-11-24T14:30:26.376Z,70.59
2022-11-24T14:33:01.248Z,70.46
2022-11-24T14:35:32.441Z,70.08
2022-11-24T14:38:02.229Z,69.68
2022-11-24T14:40:44.095Z,69.23
2022-11-24T14:43:24.388Z,68.72
2022-11-24T14:45:58.318Z,68.67
2022-11-24T14:48:49.954Z,69.15
2022-11-24T14:51:35.507Z,69.02
2022-11-24T14:54:14.039Z,69.07
2022-11-24T14:56:41.118Z,69.07
2022-11-24T14:59:25.505Z,69.12
2022-11-24T15:01:52.662Z,68.43
2022-11-24T15:07:27.327Z,68.58
2022-11-24T15:10:00.284Z,68.54
2022-11-24T15:12:29.125Z,68.69
2022-11-24T15:15:14.781Z,69.02
2022-11-24T15:17:55.138Z,69.04
2022-11-24T15:20:24.957Z,68.58
2022-11-24T15:23:11.860Z,68.46
2022-11-24T15:25:39.359Z,68.66
2022-11-24T15:28:07.733Z,68.35
2022-11-24T15:30:36.843Z,68.29
2022-11-24T15:33:11.591Z,68.14
2022-11-24T15:35:38.571Z,68.39
2022-11-24T15:38:05.564Z,68.33
2022-11-24T15:40:32.675Z,68.47
2022-11-24T15:43:06.131Z,68.42
2022-11-24T15:45:34.713Z,68.30
2022-11-24T15:48:01.636Z,67.86
2022-11-24T15:50:28.763Z,67.58
2022-11-24T15:52:57.446Z,67.83
2022-11-24T15:55:24.469Z,68.17
2022-11-24T15:57:51.387Z,68.26
2022-11-24T16:00:21.324Z,68.37
2022-11-24T16:02:49.078Z,68.33
2022-11-24T16:23:39.511Z,69.41
2022-11-24T16:26:07.045Z,69.64
2022-11-24T16:28:34.169Z,70.10
2022-11-24T16:31:01.446Z,69.83
2022-11-24T16:33:30.178Z,69.31
2022-11-24T16:35:57.245Z,69.77
2022-11-24T16:38:24.230Z,69.52
2022-11-24T16:40:56.483Z,69.49
2022-11-24T16:43:24.674Z,68.87
2022-11-24T16:46:03.392Z,68.71
2022-11-24T16:48:36.157Z,69.48
2022-11-24T16:51:08.212Z,69.65
2022-11-24T16:53:35.112Z,69.98
2022-11-24T16:56:02.357Z,70.03
2022-11-24T16:58:29.396Z,70.24
2022-11-24T17:01:03.641Z,70.13
2022-11-24T17:03:37.234Z,69.97
2022-11-24T17:06:06.301Z,70.09
2022-11-24T17:08:35.597Z,69.95
2022-11-24T17:11:10.731Z,70.14
2022-11-24T17:13:38.240Z,69.73
2022-11-24T17:16:12.275Z,69.99
2022-11-24T17:18:40.161Z,70.30
2022-11-24T17:21:11.736Z,69.97
2022-11-24T17:23:38.931Z,69.52
2022-11-24T17:26:08.441Z,69.09
2022-11-24T17:28:35.840Z,69.33
2022-11-24T17:31:25.615Z,68.42
2022-11-24T17:33:55.229Z,69.02
2022-11-24T17:36:22.985Z,68.77
2022-11-24T17:38:50.427Z,68.61
2022-11-24T17:41:21.554Z,68.85
2022-11-24T17:43:53.183Z,68.90
2022-11-24T17:46:20.191Z,68.39
2022-11-24T17:48:47.579Z,68.60
2022-11-24T17:51:16.944Z,68.88
2022-11-24T17:53:46.673Z,68.79
2022-11-24T17:56:16.330Z,68.83
2022-11-24T17:58:43.705Z,67.72
2022-11-24T18:01:12.840Z,68.42
2022-11-24T18:03:40.738Z,67.19
2022-11-24T18:06:12.310Z,67.66
2022-11-24T18:08:41.954Z,67.71
2022-11-24T18:11:11.234Z,68.25
2022-11-24T18:13:56.637Z,67.55
2022-11-24T18:16:28.251Z,67.94
2022-11-24T18:19:07.808Z,67.73
2022-11-24T18:21:36.789Z,67.63
2022-11-24T18:24:04.036Z,67.78
2022-11-24T18:26:30.995Z,68.26
2022-11-24T18:28:57.980Z,68.45
2022-11-24T18:31:26.329Z,68.69
2022-11-24T18:33:53.307Z,68.75
2022-11-24T18:36:30.069Z,68.45
2022-11-24T18:39:01.167Z,68.73
2022-11-24T18:41:28.165Z,68.78
2022-11-24T18:43:55.098Z,68.88
2022-11-24T18:46:22.194Z,69.06
2022-11-24T18:48:51.538Z,68.31
2022-11-24T18:51:18.874Z,67.93
2022-11-24T18:53:47.057Z,67.76
2022-11-24T18:56:16.709Z,67.96
2022-11-24T18:58:44.342Z,68.23
2022-11-24T19:01:19.485Z,67.60
2022-11-24T19:03:49.489Z,67.92
2022-11-24T19:06:28.852Z,67.81
2022-11-24T19:08:56.206Z,66.65
2022-11-24T19:11:25.531Z,67.22
2022-11-24T19:13:52.547Z,67.74
2022-11-24T19:16:20.970Z,67.89
2022-11-24T19:18:53.722Z,68.09
2022-11-24T19:21:21.971Z,68.01
2022-11-24T19:23:49.711Z,67.50
2022-11-24T19:26:16.653Z,67.75
2022-11-24T19:28:43.996Z,67.57
2022-11-24T19:31:13.404Z,67.58
2022-11-24T19:33:41.379Z,67.30
2022-11-24T19:36:13.922Z,67.04
2022-11-24T19:38:41.503Z,67.49
2022-11-24T19:41:13.463Z,66.61
2022-11-24T19:43:41.110Z,66.80
2022-11-24T19:46:13.665Z,67.20
2022-11-24T19:48:43.365Z,67.52
2022-11-24T19:51:16.569Z,67.41
2022-11-24T19:53:44.279Z,67.46
2022-11-24T19:56:16.881Z,66.09
2022-11-24T19:58:44.322Z,66.15
2022-11-24T20:01:16.883Z,66.50
2022-11-24T20:03:45.347Z,66.86
2022-11-24T20:06:13.872Z,66.71
2022-11-24T20:08:42.415Z,66.34
2022-11-24T20:11:12.696Z,66.40
2022-11-24T20:13:41.498Z,66.28
2022-11-24T20:16:13.440Z,64.94
2022-11-24T20:18:44.169Z,64.12
2022-11-24T20:21:17.012Z,64.37
2022-11-24T20:23:45.596Z,64.36
2022-11-24T20:26:15.821Z,63.80
2022-11-24T20:28:43.353Z,64.17
2022-11-24T20:31:16.299Z,64.52
2022-11-24T20:33:43.876Z,64.50
2022-11-24T20:36:13.955Z,64.58
2022-11-24T20:38:42.107Z,64.48
2022-11-24T20:41:10.764Z,64.84
2022-11-24T20:43:38.938Z,64.35
2022-11-24T20:46:09.104Z,63.73
2022-11-24T20:48:37.514Z,62.09
2022-11-24T20:51:15.744Z,61.40
2022-11-24T20:53:42.820Z,63.57
2022-11-24T20:56:18.683Z,62.60
2022-11-24T20:58:46.665Z,63.53
2022-11-24T21:01:22.211Z,63.54
2022-11-24T21:03:53.999Z,64.03
2022-11-24T21:06:20.939Z,62.08
2022-11-24T21:08:48.233Z,61.76
2022-11-24T21:11:16.176Z,62.26
2022-11-24T21:13:45.612Z,62.85
2022-11-24T21:16:24.707Z,63.20
2022-11-24T21:18:55.130Z,62.88
2022-11-24T21:21:23.219Z,62.27
2022-11-24T21:23:50.503Z,62.68
2022-11-24T21:26:19.006Z,61.79
2022-11-24T21:28:47.614Z,62.42
2022-11-24T21:31:21.259Z,62.80
2022-11-24T21:33:50.231Z,63.45
2022-11-24T21:36:19.814Z,63.22
2022-11-24T21:38:57.395Z,62.58
2022-11-24T21:41:27.484Z,63.23
2022-11-24T21:43:56.073Z,63.71
2022-11-24T21:46:23.827Z,64.18
2022-11-24T21:48:51.153Z,64.35
2022-11-24T21:51:20.161Z,63.85
2022-11-24T21:53:48.014Z,63.61
2022-11-24T21:56:17.300Z,63.52
2022-11-24T21:58:52.526Z,63.33
2022-11-24T22:01:22.543Z,63.74
2022-11-24T22:03:50.214Z,63.57
2022-11-24T22:06:20.880Z,64.19
2022-11-24T22:08:49.231Z,63.31
2022-11-24T22:11:19.293Z,64.09
2022-11-24T22:13:47.548Z,64.08
2022-11-24T22:16:17.093Z,64.89
2022-11-24T22:18:45.316Z,63.38
2022-11-24T22:21:17.772Z,63.67
2022-11-24T22:23:44.891Z,64.13
2022-11-24T22:26:17.479Z,64.19
2022-11-24T22:28:45.433Z,64.08
2022-11-24T22:31:17.948Z,64.54
2022-11-24T22:33:45.248Z,63.17
2022-11-24T22:36:13.712Z,63.48
2022-11-24T22:38:41.207Z,64.26
2022-11-24T22:41:11.219Z,64.42
2022-11-24T22:43:39.400Z,63.89
2022-11-24T22:46:11.907Z,63.18
2022-11-24T22:48:39.330Z,63.46
2022-11-24T22:51:08.514Z,62.73
2022-11-24T22:53:35.883Z,63.94
2022-11-24T22:56:04.618Z,63.64
2022-11-24T22:58:33.102Z,64.22
2022-11-24T23:01:12.743Z,63.96
2022-11-24T23:03:40.610Z,64.13
2022-11-24T23:06:12.019Z,64.75
2022-11-24T23:08:39.300Z,65.41
2022-11-24T23:11:15.049Z,64.27
2022-11-24T23:13:42.647Z,62.78
2022-11-24T23:16:17.784Z,63.78
2022-11-24T23:18:51.060Z,63.71
2022-11-24T23:21:23.798Z,63.98
2022-11-24T23:23:52.849Z,64.81
2022-11-24T23:26:26.708Z,65.27
2022-11-24T23:28:53.749Z,64.50
2022-11-24T23:31:24.361Z,64.81
2022-11-24T23:33:51.481Z,64.28
2022-11-24T23:36:20.443Z,63.31
2022-11-24T23:38:48.509Z,63.43
2022-11-24T23:41:21.679Z,63.09
2022-11-24T23:43:49.215Z,62.80
2022-11-24T23:46:20.559Z,62.79
2022-11-24T23:48:48.457Z,63.81
2022-11-24T23:51:17.811Z,64.75
2022-11-24T23:53:45.472Z,64.17
2022-11-24T23:56:20.969Z,63.13
2022-11-24T23:58:47.978Z,64.19
